Аэропорт: им. Гейдара Алиева. Баку

ICAO: UBBB

METAR:
2018/09/23 11:00
UBBB 231100Z 11009KT 9999 FEW032CB SCT032 BKN100 25/19 Q1016 R88/CLRD// NOSIG
METAR:
2018/09/23 12:00
TAF UBBB 231113Z 2312/2412 12008KT 9999 SCT030 FEW040CB BKN080 TX24/2312Z TN18/2402Z 
      TEMPO 2312/2316 -SHRA SCT010 SCT030CB 
      BECMG 2316/2318 04008KT SCT020 BKN100 
      TEMPO 2318/2406 36008KT SCT007